sensor_id;sensor_type;location;lat;lon;timestamp;pressure;altitude;pressure_sealevel;temperature;humidity
47080;BME280;33067;49.296;14.470;2023-12-29T00:00:50;96986.99;;;11.28;36.62
47080;BME280;33067;49.296;14.470;2023-12-29T00:03:15;96983.71;;;11.23;36.66
47080;BME280;33067;49.296;14.470;2023-12-29T00:05:40;96977.43;;;11.31;36.71
47080;BME280;33067;49.296;14.470;2023-12-29T00:08:06;96974.02;;;11.36;36.68
47080;BME280;33067;49.296;14.470;2023-12-29T00:10:31;96969.92;;;11.15;37.06
47080;BME280;33067;49.296;14.470;2023-12-29T00:12:56;96971.57;;;11.20;37.06
47080;BME280;33067;49.296;14.470;2023-12-29T00:15:23;96969.33;;;11.26;37.09
47080;BME280;33067;49.296;14.470;2023-12-29T00:17:48;96972.80;;;11.32;37.16
47080;BME280;33067;49.296;14.470;2023-12-29T00:20:13;96968.60;;;11.05;37.75
47080;BME280;33067;49.296;14.470;2023-12-29T00:22:38;96970.57;;;11.39;37.55
47080;BME280;33067;49.296;14.470;2023-12-29T00:25:04;96966.73;;;11.51;37.54
47080;BME280;33067;49.296;14.470;2023-12-29T00:27:29;96968.89;;;11.29;37.93
47080;BME280;33067;49.296;14.470;2023-12-29T00:29:56;96967.27;;;11.39;37.94
47080;BME280;33067;49.296;14.470;2023-12-29T00:32:20;96958.96;;;11.57;37.63
47080;BME280;33067;49.296;14.470;2023-12-29T00:34:45;96951.73;;;11.26;37.78
47080;BME280;33067;49.296;14.470;2023-12-29T00:37:10;96936.56;;;11.45;37.50
47080;BME280;33067;49.296;14.470;2023-12-29T00:39:36;96938.32;;;11.45;37.54
47080;BME280;33067;49.296;14.470;2023-12-29T00:42:04;96939.06;;;11.64;37.40
47080;BME280;33067;49.296;14.470;2023-12-29T00:44:26;96946.84;;;11.64;37.62
47080;BME280;33067;49.296;14.470;2023-12-29T00:46:52;96955.07;;;11.41;38.01
47080;BME280;33067;49.296;14.470;2023-12-29T00:49:17;96951.30;;;11.64;37.67
47080;BME280;33067;49.296;14.470;2023-12-29T00:51:43;96948.04;;;11.58;37.79
47080;BME280;33067;49.296;14.470;2023-12-29T00:54:08;96947.46;;;11.64;37.83
47080;BME280;33067;49.296;14.470;2023-12-29T00:56:33;96944.41;;;11.60;37.94
47080;BME280;33067;49.296;14.470;2023-12-29T00:58:59;96938.69;;;11.47;38.20
47080;BME280;33067;49.296;14.470;2023-12-29T01:01:24;96932.91;;;11.56;38.20
47080;BME280;33067;49.296;14.470;2023-12-29T01:03:49;96935.63;;;11.69;38.04
47080;BME280;33067;49.296;14.470;2023-12-29T01:06:15;96930.38;;;11.81;38.00
47080;BME280;33067;49.296;14.470;2023-12-29T01:08:42;96925.19;;;11.75;38.14
47080;BME280;33067;49.296;14.470;2023-12-29T01:11:08;96925.93;;;11.54;38.18
47080;BME280;33067;49.296;14.470;2023-12-29T01:13:31;96929.18;;;11.68;38.51
47080;BME280;33067;49.296;14.470;2023-12-29T01:15:57;96927.04;;;11.47;38.95
47080;BME280;33067;49.296;14.470;2023-12-29T01:18:22;96936.19;;;11.64;38.77
47080;BME280;33067;49.296;14.470;2023-12-29T01:20:47;96939.43;;;11.45;39.15
47080;BME280;33067;49.296;14.470;2023-12-29T01:23:13;96945.06;;;11.25;39.66
47080;BME280;33067;49.296;14.470;2023-12-29T01:25:38;96933.02;;;11.44;39.48
47080;BME280;33067;49.296;14.470;2023-12-29T01:28:04;96937.18;;;11.41;39.74
47080;BME280;33067;49.296;14.470;2023-12-29T01:30:31;96941.74;;;11.05;40.27
47080;BME280;33067;49.296;14.470;2023-12-29T01:32:55;96934.54;;;11.19;40.06
47080;BME280;33067;49.296;14.470;2023-12-29T01:35:20;96929.76;;;11.37;40.24
47080;BME280;33067;49.296;14.470;2023-12-29T01:37:46;96939.18;;;11.16;40.19
47080;BME280;33067;49.296;14.470;2023-12-29T01:40:12;96943.08;;;11.52;40.06
47080;BME280;33067;49.296;14.470;2023-12-29T01:42:36;96946.51;;;10.65;41.05
47080;BME280;33067;49.296;14.470;2023-12-29T01:45:01;96945.22;;;11.18;40.49
47080;BME280;33067;49.296;14.470;2023-12-29T01:47:27;96946.20;;;11.13;40.28
47080;BME280;33067;49.296;14.470;2023-12-29T01:49:54;96943.23;;;11.20;40.50
47080;BME280;33067;49.296;14.470;2023-12-29T01:52:18;96950.38;;;11.35;40.02
47080;BME280;33067;49.296;14.470;2023-12-29T01:54:44;96959.51;;;11.76;40.10
47080;BME280;33067;49.296;14.470;2023-12-29T01:57:08;96957.77;;;11.60;40.01
47080;BME280;33067;49.296;14.470;2023-12-29T01:59:35;96966.81;;;11.33;40.09
47080;BME280;33067;49.296;14.470;2023-12-29T02:01:59;96965.87;;;11.26;40.18
47080;BME280;33067;49.296;14.470;2023-12-29T02:04:25;96971.29;;;11.46;39.83
47080;BME280;33067;49.296;14.470;2023-12-29T02:06:50;96963.96;;;11.56;40.05
47080;BME280;33067;49.296;14.470;2023-12-29T02:09:17;96967.08;;;11.38;39.99
47080;BME280;33067;49.296;14.470;2023-12-29T02:11:40;96977.37;;;11.16;40.28
47080;BME280;33067;49.296;14.470;2023-12-29T02:14:06;96976.72;;;11.62;40.36
47080;BME280;33067;49.296;14.470;2023-12-29T02:16:43;96972.61;;;11.75;40.20
47080;BME280;33067;49.296;14.470;2023-12-29T02:18:58;96968.58;;;11.38;40.43
47080;BME280;33067;49.296;14.470;2023-12-29T02:21:24;96971.42;;;11.15;40.77
47080;BME280;33067;49.296;14.470;2023-12-29T02:23:50;96975.77;;;11.09;40.49
47080;BME280;33067;49.296;14.470;2023-12-29T02:26:15;96973.36;;;11.32;40.13
47080;BME280;33067;49.296;14.470;2023-12-29T02:28:44;96968.67;;;11.09;40.54
47080;BME280;33067;49.296;14.470;2023-12-29T02:31:09;96966.65;;;11.37;40.12
47080;BME280;33067;49.296;14.470;2023-12-29T02:33:32;96957.15;;;11.47;39.86
47080;BME280;33067;49.296;14.470;2023-12-29T02:35:57;96957.45;;;11.41;39.96
47080;BME280;33067;49.296;14.470;2023-12-29T02:38:20;96959.96;;;11.52;39.84
47080;BME280;33067;49.296;14.470;2023-12-29T02:40:46;96959.48;;;11.52;39.86
47080;BME280;33067;49.296;14.470;2023-12-29T02:43:11;96957.61;;;11.68;39.64
47080;BME280;33067;49.296;14.470;2023-12-29T02:45:37;96954.98;;;11.86;39.45
47080;BME280;33067;49.296;14.470;2023-12-29T02:48:03;96948.77;;;11.71;39.52
47080;BME280;33067;49.296;14.470;2023-12-29T02:50:29;96944.10;;;11.48;39.84
47080;BME280;33067;49.296;14.470;2023-12-29T02:52:53;96939.21;;;11.49;39.72
47080;BME280;33067;49.296;14.470;2023-12-29T02:55:19;96946.00;;;11.60;39.65
47080;BME280;33067;49.296;14.470;2023-12-29T02:57:44;96947.62;;;11.38;39.89
47080;BME280;33067;49.296;14.470;2023-12-29T03:00:10;96947.11;;;11.47;39.82
47080;BME280;33067;49.296;14.470;2023-12-29T03:02:37;96942.51;;;11.45;39.85
47080;BME280;33067;49.296;14.470;2023-12-29T03:05:00;96935.38;;;11.61;39.57
47080;BME280;33067;49.296;14.470;2023-12-29T03:07:25;96926.43;;;11.68;39.48
47080;BME280;33067;49.296;14.470;2023-12-29T03:09:51;96926.37;;;11.57;39.57
47080;BME280;33067;49.296;14.470;2023-12-29T03:13:00;96923.95;;;11.99;39.01
47080;BME280;33067;49.296;14.470;2023-12-29T03:15:27;96926.33;;;11.75;39.17
47080;BME280;33067;49.296;14.470;2023-12-29T03:17:51;96931.75;;;11.89;38.99
47080;BME280;33067;49.296;14.470;2023-12-29T03:20:17;96928.81;;;11.81;39.08
47080;BME280;33067;49.296;14.470;2023-12-29T03:22:42;96923.31;;;11.66;39.29
47080;BME280;33067;49.296;14.470;2023-12-29T03:25:08;96916.39;;;11.81;39.39
47080;BME280;33067;49.296;14.470;2023-12-29T03:27:33;96919.37;;;12.07;39.30
47080;BME280;33067;49.296;14.470;2023-12-29T03:29:58;96915.26;;;11.65;39.24
47080;BME280;33067;49.296;14.470;2023-12-29T03:32:24;96909.66;;;11.60;39.26
47080;BME280;33067;49.296;14.470;2023-12-29T03:34:49;96902.80;;;11.61;39.29
47080;BME280;33067;49.296;14.470;2023-12-29T03:37:15;96888.07;;;11.55;39.35
47080;BME280;33067;49.296;14.470;2023-12-29T03:39:40;96893.19;;;11.62;39.68
47080;BME280;33067;49.296;14.470;2023-12-29T03:42:06;96892.18;;;11.46;39.49
47080;BME280;33067;49.296;14.470;2023-12-29T03:44:31;96892.78;;;11.52;39.45
47080;BME280;33067;49.296;14.470;2023-12-29T03:46:56;96894.27;;;11.44;39.61
47080;BME280;33067;49.296;14.470;2023-12-29T03:49:22;96894.90;;;11.52;39.50
47080;BME280;33067;49.296;14.470;2023-12-29T03:51:47;96902.62;;;11.49;39.61
47080;BME280;33067;49.296;14.470;2023-12-29T03:54:13;96907.64;;;11.63;39.41
47080;BME280;33067;49.296;14.470;2023-12-29T03:56:38;96907.21;;;11.54;39.64
47080;BME280;33067;49.296;14.470;2023-12-29T03:59:05;96902.08;;;11.62;39.58
47080;BME280;33067;49.296;14.470;2023-12-29T04:01:32;96898.75;;;11.65;39.57
47080;BME280;33067;49.296;14.470;2023-12-29T04:03:55;96899.43;;;11.69;39.54
47080;BME280;33067;49.296;14.470;2023-12-29T04:06:21;96894.05;;;11.78;39.37
47080;BME280;33067;49.296;14.470;2023-12-29T04:08:46;96886.73;;;11.87;39.30
47080;BME280;33067;49.296;14.470;2023-12-29T04:11:12;96885.55;;;11.57;39.77
47080;BME280;33067;49.296;14.470;2023-12-29T04:13:36;96885.91;;;11.40;40.01
47080;BME280;33067;49.296;14.470;2023-12-29T04:16:04;96884.75;;;11.61;39.71
47080;BME280;33067;49.296;14.470;2023-12-29T04:18:28;96884.56;;;11.55;39.81
47080;BME280;33067;49.296;14.470;2023-12-29T04:20:52;96875.04;;;11.56;39.77
47080;BME280;33067;49.296;14.470;2023-12-29T04:23:17;96867.44;;;11.56;39.84
47080;BME280;33067;49.296;14.470;2023-12-29T04:25:43;96857.94;;;11.57;39.92
47080;BME280;33067;49.296;14.470;2023-12-29T04:28:08;96855.43;;;11.69;39.64
47080;BME280;33067;49.296;14.470;2023-12-29T04:30:33;96856.24;;;11.69;39.64
47080;BME280;33067;49.296;14.470;2023-12-29T04:32:59;96861.96;;;11.85;39.45
47080;BME280;33067;49.296;14.470;2023-12-29T04:35:24;96860.48;;;11.80;39.52
47080;BME280;33067;49.296;14.470;2023-12-29T04:37:50;96859.64;;;11.86;39.45
47080;BME280;33067;49.296;14.470;2023-12-29T04:40:16;96856.66;;;11.88;39.38
47080;BME280;33067;49.296;14.470;2023-12-29T04:42:41;96855.65;;;11.60;39.38
47080;BME280;33067;49.296;14.470;2023-12-29T04:45:07;96850.73;;;11.43;39.90
47080;BME280;33067;49.296;14.470;2023-12-29T04:47:31;96848.86;;;11.34;40.09
47080;BME280;33067;49.296;14.470;2023-12-29T04:49:57;96838.59;;;11.46;39.90
47080;BME280;33067;49.296;14.470;2023-12-29T04:52:22;96828.32;;;11.66;39.92
47080;BME280;33067;49.296;14.470;2023-12-29T04:54:47;96823.98;;;11.44;39.87
47080;BME280;33067;49.296;14.470;2023-12-29T04:57:13;96823.42;;;11.57;39.76
47080;BME280;33067;49.296;14.470;2023-12-29T04:59:38;96822.42;;;11.53;39.81
47080;BME280;33067;49.296;14.470;2023-12-29T05:02:04;96831.26;;;11.37;40.00
47080;BME280;33067;49.296;14.470;2023-12-29T05:04:29;96833.64;;;11.33;40.20
47080;BME280;33067;49.296;14.470;2023-12-29T05:06:55;96838.76;;;11.42;40.28
47080;BME280;33067;49.296;14.470;2023-12-29T05:09:20;96839.17;;;11.53;40.14
47080;BME280;33067;49.296;14.470;2023-12-29T05:11:46;96839.29;;;10.90;40.79
47080;BME280;33067;49.296;14.470;2023-12-29T05:14:11;96843.98;;;11.38;40.50
47080;BME280;33067;49.296;14.470;2023-12-29T05:16:37;96838.73;;;11.70;40.28
47080;BME280;33067;49.296;14.470;2023-12-29T05:19:02;96839.95;;;11.22;40.35
47080;BME280;33067;49.296;14.470;2023-12-29T05:21:27;96832.06;;;11.17;40.31
47080;BME280;33067;49.296;14.470;2023-12-29T05:23:52;96834.88;;;11.26;40.56
47080;BME280;33067;49.296;14.470;2023-12-29T05:26:18;96827.84;;;11.32;40.14
47080;BME280;33067;49.296;14.470;2023-12-29T05:28:43;96829.87;;;11.41;40.08
47080;BME280;33067;49.296;14.470;2023-12-29T05:31:08;96825.87;;;11.62;40.44
47080;BME280;33067;49.296;14.470;2023-12-29T05:33:34;96824.31;;;11.27;40.27
47080;BME280;33067;49.296;14.470;2023-12-29T05:36:04;96823.61;;;10.55;41.44
47080;BME280;33067;49.296;14.470;2023-12-29T05:38:26;96817.36;;;11.18;40.33
47080;BME280;33067;49.296;14.470;2023-12-29T05:40:50;96819.83;;;11.15;40.43
47080;BME280;33067;49.296;14.470;2023-12-29T05:43:16;96822.40;;;11.84;40.15
47080;BME280;33067;49.296;14.470;2023-12-29T05:45:41;96829.12;;;11.24;40.28
47080;BME280;33067;49.296;14.470;2023-12-29T05:48:07;96829.44;;;11.25;40.30
47080;BME280;33067;49.296;14.470;2023-12-29T05:50:32;96829.59;;;11.22;40.22
47080;BME280;33067;49.296;14.470;2023-12-29T05:52:57;96824.41;;;11.32;40.13
47080;BME280;33067;49.296;14.470;2023-12-29T05:55:22;96830.67;;;11.24;40.17
47080;BME280;33067;49.296;14.470;2023-12-29T05:57:48;96827.04;;;11.28;40.08
47080;BME280;33067;49.296;14.470;2023-12-29T06:00:14;96828.84;;;11.27;40.45
47080;BME280;33067;49.296;14.470;2023-12-29T06:02:39;96827.34;;;11.35;39.97
47080;BME280;33067;49.296;14.470;2023-12-29T06:05:05;96833.11;;;11.12;40.17
47080;BME280;33067;49.296;14.470;2023-12-29T06:07:30;96832.60;;;11.21;40.12
47080;BME280;33067;49.296;14.470;2023-12-29T06:09:55;96834.30;;;11.70;39.46
47080;BME280;33067;49.296;14.470;2023-12-29T06:12:20;96838.43;;;11.74;39.14
47080;BME280;33067;49.296;14.470;2023-12-29T06:14:46;96842.25;;;11.50;39.54
47080;BME280;33067;49.296;14.470;2023-12-29T06:17:11;96847.19;;;11.49;39.46
47080;BME280;33067;49.296;14.470;2023-12-29T06:19:36;96846.36;;;11.63;39.41
47080;BME280;33067;49.296;14.470;2023-12-29T06:22:02;96847.17;;;11.73;39.27
47080;BME280;33067;49.296;14.470;2023-12-29T06:24:27;96845.55;;;11.63;39.44
47080;BME280;33067;49.296;14.470;2023-12-29T06:26:52;96843.92;;;11.71;39.33
47080;BME280;33067;49.296;14.470;2023-12-29T06:29:18;96837.05;;;11.73;39.22
47080;BME280;33067;49.296;14.470;2023-12-29T06:31:43;96840.83;;;11.62;39.28
47080;BME280;33067;49.296;14.470;2023-12-29T06:34:08;96841.88;;;11.51;39.39
47080;BME280;33067;49.296;14.470;2023-12-29T06:36:34;96842.05;;;11.43;39.49
47080;BME280;33067;49.296;14.470;2023-12-29T06:39:00;96847.52;;;11.61;39.21
47080;BME280;33067;49.296;14.470;2023-12-29T06:41:24;96847.08;;;11.65;39.19
47080;BME280;33067;49.296;14.470;2023-12-29T06:43:50;96850.91;;;11.47;39.40
47080;BME280;33067;49.296;14.470;2023-12-29T06:46:15;96852.80;;;11.78;39.43
47080;BME280;33067;49.296;14.470;2023-12-29T06:48:40;96855.19;;;11.57;39.80
47080;BME280;33067;49.296;14.470;2023-12-29T06:51:06;96855.09;;;11.18;39.63
47080;BME280;33067;49.296;14.470;2023-12-29T06:53:31;96855.90;;;10.92;39.98
47080;BME280;33067;49.296;14.470;2023-12-29T06:55:57;96848.82;;;11.12;40.04
47080;BME280;33067;49.296;14.470;2023-12-29T06:58:22;96848.34;;;11.11;39.96
47080;BME280;33067;49.296;14.470;2023-12-29T07:00:47;96846.47;;;11.31;39.76
47080;BME280;33067;49.296;14.470;2023-12-29T07:03:13;96846.18;;;10.86;39.92
47080;BME280;33067;49.296;14.470;2023-12-29T07:05:38;96852.98;;;11.42;39.86
47080;BME280;33067;49.296;14.470;2023-12-29T07:08:04;96859.24;;;11.19;39.77
47080;BME280;33067;49.296;14.470;2023-12-29T07:10:29;96866.50;;;11.41;39.74
47080;BME280;33067;49.296;14.470;2023-12-29T07:12:54;96866.61;;;11.14;39.82
47080;BME280;33067;49.296;14.470;2023-12-29T07:15:19;96871.23;;;11.00;39.70
47080;BME280;33067;49.296;14.470;2023-12-29T07:17:45;96865.89;;;11.22;39.55
47080;BME280;33067;49.296;14.470;2023-12-29T07:20:11;96869.26;;;11.13;39.52
47080;BME280;33067;49.296;14.470;2023-12-29T07:22:36;96868.67;;;10.86;39.73
47080;BME280;33067;49.296;14.470;2023-12-29T07:25:02;96865.78;;;11.39;39.78
47080;BME280;33067;49.296;14.470;2023-12-29T07:27:27;96865.28;;;10.96;39.71
47080;BME280;33067;49.296;14.470;2023-12-29T07:29:52;96869.69;;;11.18;39.69
47080;BME280;33067;49.296;14.470;2023-12-29T07:32:17;96871.33;;;11.00;39.58
47080;BME280;33067;49.296;14.470;2023-12-29T07:34:43;96877.84;;;11.05;39.43
47080;BME280;33067;49.296;14.470;2023-12-29T07:37:08;96877.60;;;11.27;39.50
47080;BME280;33067;49.296;14.470;2023-12-29T07:39:37;96880.84;;;10.93;39.73
47080;BME280;33067;49.296;14.470;2023-12-29T07:41:59;96879.47;;;11.18;39.31
47080;BME280;33067;49.296;14.470;2023-12-29T07:44:25;96883.44;;;11.13;39.29
47080;BME280;33067;49.296;14.470;2023-12-29T07:46:50;96884.56;;;11.27;39.09
47080;BME280;33067;49.296;14.470;2023-12-29T07:49:15;96887.56;;;11.29;39.06
47080;BME280;33067;49.296;14.470;2023-12-29T07:51:40;96887.74;;;11.33;39.00
47080;BME280;33067;49.296;14.470;2023-12-29T07:54:06;96883.17;;;11.27;39.05
47080;BME280;33067;49.296;14.470;2023-12-29T07:56:31;96881.42;;;11.07;39.23
47080;BME280;33067;49.296;14.470;2023-12-29T07:58:56;96883.84;;;11.25;38.91
47080;BME280;33067;49.296;14.470;2023-12-29T08:01:21;96884.79;;;11.05;39.15
47080;BME280;33067;49.296;14.470;2023-12-29T08:03:46;96881.80;;;11.13;39.07
47080;BME280;33067;49.296;14.470;2023-12-29T08:06:12;96887.32;;;11.15;39.04
47080;BME280;33067;49.296;14.470;2023-12-29T08:08:37;96888.75;;;11.17;38.89
47080;BME280;33067;49.296;14.470;2023-12-29T08:11:03;96892.71;;;10.98;39.32
47080;BME280;33067;49.296;14.470;2023-12-29T08:13:30;96891.74;;;11.23;38.99
47080;BME280;33067;49.296;14.470;2023-12-29T08:15:55;96891.72;;;11.04;39.19
47080;BME280;33067;49.296;14.470;2023-12-29T08:18:19;96892.90;;;11.08;39.19
47080;BME280;33067;49.296;14.470;2023-12-29T08:20:44;96898.44;;;11.33;38.87
47080;BME280;33067;49.296;14.470;2023-12-29T08:23:09;96900.87;;;11.65;38.71
47080;BME280;33067;49.296;14.470;2023-12-29T08:25:34;96902.06;;;11.31;38.71
47080;BME280;33067;49.296;14.470;2023-12-29T08:28:00;96904.99;;;11.43;38.71
47080;BME280;33067;49.296;14.470;2023-12-29T08:30:25;96907.15;;;11.59;38.49
47080;BME280;33067;49.296;14.470;2023-12-29T08:32:51;96908.75;;;11.75;38.56
47080;BME280;33067;49.296;14.470;2023-12-29T08:35:16;96912.12;;;11.50;38.57
47080;BME280;33067;49.296;14.470;2023-12-29T08:37:43;96913.20;;;11.52;38.55
47080;BME280;33067;49.296;14.470;2023-12-29T08:40:07;96919.08;;;11.33;38.82
47080;BME280;33067;49.296;14.470;2023-12-29T08:42:31;96926.35;;;11.42;38.79
47080;BME280;33067;49.296;14.470;2023-12-29T08:44:59;96928.06;;;11.40;38.82
47080;BME280;33067;49.296;14.470;2023-12-29T08:47:22;96930.25;;;11.60;38.61
47080;BME280;33067;49.296;14.470;2023-12-29T08:49:47;96926.41;;;11.80;38.66
47080;BME280;33067;49.296;14.470;2023-12-29T08:52:13;96925.22;;;11.59;38.57
47080;BME280;33067;49.296;14.470;2023-12-29T08:54:41;96922.55;;;11.66;38.39
47080;BME280;33067;49.296;14.470;2023-12-29T08:57:03;96919.86;;;11.51;38.62
47080;BME280;33067;49.296;14.470;2023-12-29T08:59:31;96911.70;;;11.76;38.19
47080;BME280;33067;49.296;14.470;2023-12-29T09:01:54;96905.07;;;11.41;38.74
47080;BME280;33067;49.296;14.470;2023-12-29T09:04:20;96901.53;;;11.42;38.78
47080;BME280;33067;49.296;14.470;2023-12-29T09:06:45;96905.01;;;11.38;38.81
47080;BME280;33067;49.296;14.470;2023-12-29T09:09:10;96901.29;;;11.38;38.87
47080;BME280;33067;49.296;14.470;2023-12-29T09:11:36;96899.72;;;11.45;38.93
47080;BME280;33067;49.296;14.470;2023-12-29T09:14:02;96898.24;;;11.46;38.83
47080;BME280;33067;49.296;14.470;2023-12-29T09:16:26;96895.92;;;11.55;38.83
47080;BME280;33067;49.296;14.470;2023-12-29T09:18:52;96906.46;;;11.49;38.61
47080;BME280;33067;49.296;14.470;2023-12-29T09:21:17;96903.32;;;11.37;39.18
47080;BME280;33067;49.296;14.470;2023-12-29T09:23:43;96901.02;;;11.47;39.11
47080;BME280;33067;49.296;14.470;2023-12-29T09:26:09;96903.12;;;11.57;39.60
47080;BME280;33067;49.296;14.470;2023-12-29T09:28:34;96907.45;;;11.58;39.42
47080;BME280;33067;49.296;14.470;2023-12-29T09:30:59;96906.36;;;11.22;39.65
47080;BME280;33067;49.296;14.470;2023-12-29T09:33:24;96901.85;;;11.59;39.13
47080;BME280;33067;49.296;14.470;2023-12-29T09:35:49;96903.33;;;11.15;39.77
47080;BME280;33067;49.296;14.470;2023-12-29T09:38:15;96903.10;;;11.40;39.52
47080;BME280;33067;49.296;14.470;2023-12-29T09:40:41;96907.17;;;11.69;39.18
47080;BME280;33067;49.296;14.470;2023-12-29T09:43:05;96908.53;;;11.84;39.01
47080;BME280;33067;49.296;14.470;2023-12-29T09:45:36;96909.52;;;11.99;38.79
47080;BME280;33067;49.296;14.470;2023-12-29T09:47:56;96913.63;;;12.12;38.62
47080;BME280;33067;49.296;14.470;2023-12-29T09:50:23;96908.78;;;12.17;38.53
47080;BME280;33067;49.296;14.470;2023-12-29T09:52:49;96915.12;;;12.04;38.33
47080;BME280;33067;49.296;14.470;2023-12-29T09:55:13;96915.67;;;12.42;38.23
47080;BME280;33067;49.296;14.470;2023-12-29T09:57:39;96915.44;;;12.36;37.66
47080;BME280;33067;49.296;14.470;2023-12-29T10:00:05;96913.73;;;12.44;37.76
47080;BME280;33067;49.296;14.470;2023-12-29T10:02:30;96912.98;;;12.44;37.72
47080;BME280;33067;49.296;14.470;2023-12-29T10:04:55;96912.35;;;12.35;37.86
47080;BME280;33067;49.296;14.470;2023-12-29T10:07:24;96906.31;;;12.27;37.88
47080;BME280;33067;49.296;14.470;2023-12-29T10:09:46;96904.55;;;12.49;37.65
47080;BME280;33067;49.296;14.470;2023-12-29T10:12:11;96905.26;;;12.74;37.24
47080;BME280;33067;49.296;14.470;2023-12-29T10:14:41;96899.47;;;12.40;37.73
47080;BME280;33067;49.296;14.470;2023-12-29T10:17:06;96896.02;;;12.55;37.87
47080;BME280;33067;49.296;14.470;2023-12-29T10:19:34;96890.62;;;12.51;37.75
47080;BME280;33067;49.296;14.470;2023-12-29T10:21:58;96891.52;;;12.50;38.15
47080;BME280;33067;49.296;14.470;2023-12-29T10:24:20;96885.25;;;12.69;37.59
47080;BME280;33067;49.296;14.470;2023-12-29T10:26:44;96881.04;;;12.39;38.39
47080;BME280;33067;49.296;14.470;2023-12-29T10:29:10;96880.40;;;12.93;37.62
47080;BME280;33067;49.296;14.470;2023-12-29T10:31:34;96874.87;;;12.50;37.89
47080;BME280;33067;49.296;14.470;2023-12-29T10:36:25;96870.25;;;12.61;37.69
47080;BME280;33067;49.296;14.470;2023-12-29T10:39:05;96874.08;;;12.65;37.56
47080;BME280;33067;49.296;14.470;2023-12-29T10:41:17;96869.79;;;12.85;37.50
47080;BME280;33067;49.296;14.470;2023-12-29T10:43:42;96870.49;;;12.90;37.40
47080;BME280;33067;49.296;14.470;2023-12-29T10:46:07;96870.61;;;12.75;37.67
47080;BME280;33067;49.296;14.470;2023-12-29T10:48:32;96874.47;;;13.06;37.26
47080;BME280;33067;49.296;14.470;2023-12-29T10:50:57;96871.93;;;13.45;36.78
47080;BME280;33067;49.296;14.470;2023-12-29T10:53:22;96870.82;;;13.09;37.31
47080;BME280;33067;49.296;14.470;2023-12-29T10:55:47;96862.54;;;13.50;36.48
47080;BME280;33067;49.296;14.470;2023-12-29T10:58:16;96859.32;;;13.35;36.46
47080;BME280;33067;49.296;14.470;2023-12-29T11:00:38;96861.78;;;12.79;37.00
47080;BME280;33067;49.296;14.470;2023-12-29T11:03:04;96857.82;;;13.15;36.85
47080;BME280;33067;49.296;14.470;2023-12-29T11:05:30;96855.56;;;13.23;36.62
47080;BME280;33067;49.296;14.470;2023-12-29T11:07:55;96857.11;;;13.10;36.93
47080;BME280;33067;49.296;14.470;2023-12-29T11:10:22;96855.34;;;13.36;36.73
47080;BME280;33067;49.296;14.470;2023-12-29T11:12:45;96852.70;;;13.58;36.19
47080;BME280;33067;49.296;14.470;2023-12-29T11:15:15;96845.91;;;13.38;36.30
47080;BME280;33067;49.296;14.470;2023-12-29T11:17:35;96841.72;;;12.95;36.62
47080;BME280;33067;49.296;14.470;2023-12-29T11:20:02;96836.81;;;13.39;36.61
47080;BME280;33067;49.296;14.470;2023-12-29T11:22:28;96834.19;;;13.78;35.85
47080;BME280;33067;49.296;14.470;2023-12-29T11:24:51;96837.12;;;13.35;35.80
47080;BME280;33067;49.296;14.470;2023-12-29T11:27:17;96833.93;;;13.34;35.97
47080;BME280;33067;49.296;14.470;2023-12-29T11:29:42;96832.46;;;13.60;35.49
47080;BME280;33067;49.296;14.470;2023-12-29T11:32:12;96829.72;;;13.86;35.41
47080;BME280;33067;49.296;14.470;2023-12-29T11:34:39;96827.68;;;14.14;35.30
47080;BME280;33067;49.296;14.470;2023-12-29T11:37:04;96835.54;;;13.73;36.00
47080;BME280;33067;49.296;14.470;2023-12-29T11:39:30;96827.99;;;13.74;35.40
47080;BME280;33067;49.296;14.470;2023-12-29T11:41:54;96831.47;;;14.12;35.38
47080;BME280;33067;49.296;14.470;2023-12-29T11:46:39;96833.59;;;13.32;35.73
47080;BME280;33067;49.296;14.470;2023-12-29T11:49:04;96825.32;;;13.91;35.56
47080;BME280;33067;49.296;14.470;2023-12-29T11:51:31;96820.73;;;13.69;35.74
47080;BME280;33067;49.296;14.470;2023-12-29T11:53:55;96818.84;;;13.73;35.73
47080;BME280;33067;49.296;14.470;2023-12-29T11:56:19;96821.83;;;13.41;35.90
47080;BME280;33067;49.296;14.470;2023-12-29T11:58:45;96822.93;;;13.33;36.37
47080;BME280;33067;49.296;14.470;2023-12-29T12:01:10;96817.84;;;13.34;36.26
47080;BME280;33067;49.296;14.470;2023-12-29T12:03:37;96816.31;;;13.26;36.46
47080;BME280;33067;49.296;14.470;2023-12-29T12:06:02;96813.04;;;13.11;36.36
47080;BME280;33067;49.296;14.470;2023-12-29T12:08:32;96816.68;;;12.56;36.91
47080;BME280;33067;49.296;14.470;2023-12-29T12:10:51;96807.50;;;13.08;36.58
47080;BME280;33067;49.296;14.470;2023-12-29T12:15:42;96794.38;;;13.07;36.50
47080;BME280;33067;49.296;14.470;2023-12-29T12:18:12;96791.96;;;13.15;36.40
47080;BME280;33067;49.296;14.470;2023-12-29T12:20:32;96789.22;;;13.08;36.49
47080;BME280;33067;49.296;14.470;2023-12-29T12:22:58;96785.60;;;13.59;35.87
47080;BME280;33067;49.296;14.470;2023-12-29T12:25:27;96784.23;;;13.25;35.71
47080;BME280;33067;49.296;14.470;2023-12-29T12:27:48;96781.43;;;13.56;35.81
47080;BME280;33067;49.296;14.470;2023-12-29T12:30:18;96778.81;;;13.37;35.43
47080;BME280;33067;49.296;14.470;2023-12-29T12:32:38;96777.40;;;13.54;35.50
47080;BME280;33067;49.296;14.470;2023-12-29T12:35:14;96778.71;;;13.80;35.62
47080;BME280;33067;49.296;14.470;2023-12-29T12:37:30;96780.02;;;13.88;35.26
47080;BME280;33067;49.296;14.470;2023-12-29T12:39:56;96779.37;;;13.64;35.36
47080;BME280;33067;49.296;14.470;2023-12-29T12:42:20;96778.11;;;13.91;34.96
47080;BME280;33067;49.296;14.470;2023-12-29T12:44:53;96771.10;;;13.89;35.14
47080;BME280;33067;49.296;14.470;2023-12-29T12:47:17;96767.32;;;14.45;34.99